Bani, Dominican Republic
Current Conditions -  °F | °C
As of 2:00 PM on Monday 22 Dec 2014 (Local Time) from MDSD Reporting Station
Scattered Clouds Scattered Clouds  
Wind Chill: 86°   Ceiling: Unl
Heat Index: 90°   Visibility: 6mi
Dew Point: 70°   Wind: 8mph
Humidity: 58%   Direction: 150°SSE
Pressure: 30"   Gusts: NA
Location:  18.29°N, 70.33°W
Report Text: MDSD 221800Z 15007KT 9999 SCT024 30/21 Q1016
Loading
Personal Weather Stations






























Interactive Weather Map New forecast layout! Learn more

10-Day Weather Forecast

Advertisements
Track Severe Weather on mobile